CheckWX is a tool to help pilots better visualize weather data.  It is not intended as a substitute for an official pre-flight weather briefing.

18:36:18 UTC

KCNM METAR
Cavern City Air Trml Airport
Carlsbad, New Mexico, USA
Current

43 mins ago

KCNM 221753Z AUTO 13007KT 10SM CLR 13/01 A2985 RMK AO2 SLP084 T01280006 10128 21028 58011
Observed
Feb-22 @ 17:53 UTC
Wind
  • 130° at 7 KTS
Visibility
10 SM
Flight Rules
VFR
Cloud Levels
  • Clear skies
Temperature
13°C / 55°F
Dewpoint
C / 34°F
Humidity
44%
Altimeter
29.85" Hg
Pressure
1008.4 hPa
Previous

2 hours ago

KCNM 221653Z AUTO 14007KT 10SM CLR 11/02 A2987 RMK AO2 SLP091 T01060017
Observed
Feb-22 @ 16:53 UTC
Wind
  • 140° at 7 KTS
Visibility
10 SM
Flight Rules
VFR
Cloud Levels
  • Clear skies
Temperature
11°C / 52°F
Dewpoint
C / 36°F
Humidity
54%
Altimeter
29.87" Hg
Pressure
1009.1 hPa
Previous

3 hours ago

KCNM 221553Z AUTO 16006KT 10SM CLR 08/02 A2988 RMK AO2 SLP097 T00780017
Observed
Feb-22 @ 15:53 UTC
Wind
  • 160° at 6 KTS
Visibility
10 SM
Flight Rules
VFR
Cloud Levels
  • Clear skies
Temperature
C / 46°F
Dewpoint
C / 36°F
Humidity
66%
Altimeter
29.88" Hg
Pressure
1009.7 hPa